Sunday, November 18, 2018, 3:10 PM GMT
Back to Local

CWZS, Amqui , Que.

Location: , , Canada Lat: 48.467
Local Time: 3:10 PM GMT (15:10 GMT) Lon: -67.433
Time Zone: GMT Elev: 544 ft

Show me the last for .
Show Coded

Time T Td Feel RH Dir Speed Gust Alt SLP Vis Weather Sky Remarks
2018-11-18 14:00 17 9 8 69 270° 7 - - 30.24 0 None
2018-11-18 13:00 18 10 7 70 280° 9 - - 30.21 0 None
2018-11-18 12:00 19 11 9 70 270° 8 - - 30.18 0 None
2018-11-18 11:00 19 14 9 80 280° 8 - - 30.15 0 None
2018-11-18 10:00 20 15 13 77 290° 6 - - 30.12 0 None
2018-11-18 09:00 21 14 12 74 300° 7 - - 30.11 0 None
2018-11-18 08:00 21 16 13 80 290° 7 - - 30.08 0 None
2018-11-18 07:00 21 15 11 77 290° 9 - - 30.06 0 None
2018-11-18 06:00 22 13 7 66 300° 10 18 - 30.04 0 Peak wind: 23 mph (20 kts) from 300° at 01 min
2018-11-18 05:00 23 13 8 66 310° 12 18 - 30.02 0 Peak wind: 19 mph (17 kts) from 300° at 44 min
2018-11-18 04:00 23 16 13 72 310° 9 - - 29.98 0 Peak wind: 19 mph (17 kts) from 280° at 30 min
2018-11-18 03:00 24 22 9 92 300° 14 21 - 29.96 0 Peak wind: 21 mph (19 kts) from 280° at 23 min
2018-11-18 02:00 26 18 12 72 300° 14 20 - 29.93 0 Peak wind: 27 mph (24 kts) from 290° at 39 min
2018-11-18 01:00 27 23 18 82 290° 10 - - 29.89 0 None
2018-11-18 00:00 28 23 20 79 300° 9 - - 29.86 0 None
2018-11-17 23:00 29 23 16 79 280° 12 20 - 29.84 0 Peak wind: 19 mph (17 kts) from 270° at 59 min
2018-11-17 22:00 28 23 24 79 260° 3 - - 29.82 0 None
2018-11-17 21:00 27 21 23 76 260° 3 - - 29.80 0 None
2018-11-17 20:00 29 21 22 72 270° 7 - - 29.78 0 None
2018-11-17 19:00 29 20 21 68 280° 8 - - 29.76 0 None
2018-11-17 18:00 28 20 20 69 270° 8 - - 29.74 0 None
2018-11-17 17:00 27 22 22 81 300° 5 - - 29.73 0 None
2018-11-17 16:00 27 21 23 79 220° 3 - - 29.73 0 None

Support USWX by starting your Amazon purchase here.